createdAt,value
2019-02-12T00:00:46.392Z,3.80
2019-02-12T00:03:15.688Z,3.80
2019-02-12T00:05:44.989Z,3.70
2019-02-12T00:08:14.264Z,3.70
2019-02-12T00:10:43.633Z,3.70
2019-02-12T00:13:12.999Z,3.70
2019-02-12T00:15:42.293Z,3.60
2019-02-12T00:18:11.860Z,3.50
2019-02-12T00:20:41.167Z,3.60
2019-02-12T00:23:10.768Z,3.60
2019-02-12T00:25:40.061Z,3.60
2019-02-12T00:28:09.975Z,3.50
2019-02-12T00:30:39.267Z,3.50
2019-02-12T00:33:08.648Z,3.50
2019-02-12T00:35:38.021Z,3.60
2019-02-12T00:38:07.680Z,3.60
2019-02-12T00:40:37.281Z,3.70
2019-02-12T00:43:06.578Z,3.70
2019-02-12T00:45:36.296Z,3.70
2019-02-12T00:48:05.661Z,3.80
2019-02-12T00:50:34.951Z,3.90
2019-02-12T00:53:04.236Z,3.90
2019-02-12T00:55:33.536Z,3.90
2019-02-12T00:58:02.856Z,3.90
2019-02-12T01:00:32.146Z,3.90
2019-02-12T01:03:01.796Z,3.90
2019-02-12T01:05:31.412Z,3.90
2019-02-12T01:08:00.727Z,3.90
2019-02-12T01:10:30.010Z,3.90
2019-02-12T01:12:59.612Z,3.90
2019-02-12T01:15:29.276Z,3.90
2019-02-12T01:17:58.588Z,4.00
2019-02-12T01:20:28.530Z,4.00
2019-02-12T01:22:58.144Z,3.90
2019-02-12T01:25:27.430Z,3.90
2019-02-12T01:27:56.754Z,3.90
2019-02-12T01:30:26.046Z,4.00
2019-02-12T01:32:55.752Z,4.00
2019-02-12T01:35:25.058Z,4.00
2019-02-12T01:37:54.384Z,4.00
2019-02-12T01:40:24.055Z,3.90
2019-02-12T01:42:53.375Z,3.90
2019-02-12T01:45:22.669Z,3.90
2019-02-12T01:47:52.266Z,3.90
2019-02-12T01:50:21.967Z,3.90
2019-02-12T01:52:51.267Z,3.90
2019-02-12T01:55:20.574Z,3.80
2019-02-12T01:57:49.959Z,3.70
2019-02-12T02:00:19.252Z,3.70
2019-02-12T02:02:48.559Z,3.60
2019-02-12T02:05:18.155Z,3.60
2019-02-12T02:07:47.534Z,3.40
2019-02-12T02:10:18.176Z,3.30
2019-02-12T02:12:47.493Z,3.20
2019-02-12T02:15:17.464Z,3.00
2019-02-12T02:17:47.179Z,2.90
2019-02-12T02:20:16.835Z,2.90
2019-02-12T02:22:46.169Z,2.80
2019-02-12T02:25:15.577Z,2.70
2019-02-12T02:27:45.233Z,2.70
2019-02-12T02:30:15.582Z,2.70
2019-02-12T02:32:44.970Z,2.70
2019-02-12T02:35:14.272Z,2.70
2019-02-12T02:37:43.643Z,2.70
2019-02-12T02:40:12.992Z,2.70
2019-02-12T02:42:42.295Z,2.70
2019-02-12T02:45:12.335Z,2.70
2019-02-12T02:47:41.708Z,2.70
2019-02-12T02:50:11.160Z,2.80
2019-02-12T02:52:40.539Z,2.80
2019-02-12T02:55:10.173Z,2.80
2019-02-12T02:57:39.507Z,2.80
2019-02-12T03:00:09.708Z,2.80
2019-02-12T03:02:39.013Z,2.80
2019-02-12T03:05:09.897Z,2.80
2019-02-12T03:07:39.304Z,2.80
2019-02-12T03:10:09.101Z,2.80
2019-02-12T03:12:38.764Z,2.80
2019-02-12T03:15:09.143Z,2.80
2019-02-12T03:17:38.634Z,2.80
2019-02-12T03:20:09.276Z,2.70
2019-02-12T03:22:38.718Z,2.70
2019-02-12T03:25:08.485Z,2.70
2019-02-12T03:27:37.734Z,2.70
2019-02-12T03:30:07.617Z,2.70
2019-02-12T03:32:37.302Z,2.70
2019-02-12T03:35:07.468Z,2.70
2019-02-12T03:37:37.143Z,2.70
2019-02-12T03:40:07.639Z,2.80
2019-02-12T03:42:37.011Z,2.80
2019-02-12T03:45:06.851Z,2.90
2019-02-12T03:47:37.253Z,3.00
2019-02-12T03:50:07.395Z,3.00
2019-02-12T03:52:36.611Z,3.10
2019-02-12T03:55:06.670Z,3.10
2019-02-12T03:57:36.149Z,3.20
2019-02-12T04:00:05.945Z,3.20
2019-02-12T04:02:35.170Z,3.20
2019-02-12T04:05:04.633Z,3.20
2019-02-12T04:07:33.861Z,3.20
2019-02-12T04:10:03.027Z,3.20
2019-02-12T04:12:32.251Z,3.30
2019-02-12T04:15:01.773Z,3.30
2019-02-12T04:17:30.955Z,3.30
2019-02-12T04:20:05.300Z,3.30
2019-02-12T04:22:38.230Z,3.30
2019-02-12T04:25:07.490Z,3.30
2019-02-12T04:27:36.700Z,3.30
2019-02-12T04:30:06.157Z,3.40
2019-02-12T04:32:35.399Z,3.30
2019-02-12T04:35:04.614Z,3.30
2019-02-12T04:37:33.842Z,3.20
2019-02-12T04:40:03.101Z,3.10
2019-02-12T04:42:32.730Z,3.00
2019-02-12T04:45:02.052Z,2.90
2019-02-12T04:47:31.200Z,2.80
2019-02-12T04:50:00.798Z,2.80
2019-02-12T04:52:31.922Z,2.80
2019-02-12T04:55:01.042Z,2.80
2019-02-12T04:57:30.483Z,2.80
2019-02-12T04:59:59.749Z,2.80
2019-02-12T05:02:29.624Z,2.90
2019-02-12T05:04:58.875Z,2.90
2019-02-12T05:07:28.113Z,3.00
2019-02-12T05:09:57.289Z,3.10
2019-02-12T05:12:26.693Z,3.10
2019-02-12T05:14:55.937Z,3.10
2019-02-12T05:17:25.240Z,3.20
2019-02-12T05:19:54.490Z,3.20
2019-02-12T05:22:23.727Z,3.10
2019-02-12T05:24:53.226Z,3.10
2019-02-12T05:27:22.454Z,3.00
2019-02-12T05:29:51.601Z,3.00
2019-02-12T05:32:20.807Z,3.00
2019-02-12T05:34:50.321Z,3.00
2019-02-12T05:37:19.600Z,3.00
2019-02-12T05:39:49.005Z,3.00
2019-02-12T05:42:18.255Z,2.90
2019-02-12T05:44:47.470Z,2.90
2019-02-12T05:47:16.693Z,2.90
2019-02-12T05:49:46.068Z,2.90
2019-02-12T05:52:15.247Z,2.90
2019-02-12T05:54:44.997Z,3.00
2019-02-12T05:57:14.571Z,3.00
2019-02-12T05:59:43.801Z,2.90
2019-02-12T06:02:12.990Z,2.90
2019-02-12T06:04:42.237Z,3.00
2019-02-12T06:07:17.924Z,3.00
2019-02-12T06:09:47.099Z,3.00
2019-02-12T06:12:16.241Z,3.00
2019-02-12T06:14:45.649Z,3.00
2019-02-12T06:17:15.443Z,3.10
2019-02-12T06:19:44.741Z,3.10
2019-02-12T06:22:13.922Z,3.10
2019-02-12T06:24:43.056Z,3.10
2019-02-12T06:27:12.202Z,3.20
2019-02-12T06:29:41.736Z,3.20
2019-02-12T06:32:11.352Z,3.20
2019-02-12T06:34:40.880Z,3.20
2019-02-12T06:37:10.427Z,3.20
2019-02-12T06:39:39.674Z,3.20
2019-02-12T06:42:08.829Z,3.30
2019-02-12T06:44:38.034Z,3.30
2019-02-12T06:47:07.350Z,3.20
2019-02-12T06:49:37.090Z,3.20
2019-02-12T06:52:06.522Z,3.30
2019-02-12T06:54:35.770Z,3.30
2019-02-12T06:57:04.962Z,3.40
2019-02-12T06:59:34.548Z,3.40
2019-02-12T07:02:39.685Z,3.40
2019-02-12T07:05:09.371Z,3.40
2019-02-12T07:08:25.677Z,3.40
2019-02-12T07:10:55.556Z,3.40
2019-02-12T07:13:42.568Z,3.50
2019-02-12T07:16:51.240Z,3.50
2019-02-12T07:19:49.966Z,3.50
2019-02-12T07:22:59.573Z,3.60
2019-02-12T07:25:55.223Z,3.60
2019-02-12T07:29:10.749Z,3.60
2019-02-12T07:32:09.435Z,3.60
2019-02-12T07:35:32.212Z,3.70
2019-02-12T07:38:26.517Z,3.70
2019-02-12T07:41:30.094Z,3.80
2019-02-12T07:44:21.892Z,3.80
2019-02-12T07:47:30.713Z,3.70
2019-02-12T07:50:30.644Z,3.80
2019-02-12T07:53:41.381Z,3.80
2019-02-12T07:56:39.745Z,3.90
2019-02-12T07:59:42.445Z,4.00
2019-02-12T08:02:38.724Z,4.00
2019-02-12T08:05:33.686Z,4.00
2019-02-12T08:08:49.193Z,4.10
2019-02-12T08:11:53.017Z,4.10
2019-02-12T08:14:46.966Z,4.00
2019-02-12T08:17:51.521Z,4.10
2019-02-12T08:21:03.804Z,4.10
2019-02-12T08:24:10.306Z,4.20
2019-02-12T08:26:59.810Z,4.20
2019-02-12T08:30:12.289Z,4.20
2019-02-12T08:33:30.737Z,4.20
2019-02-12T08:36:12.489Z,4.10
2019-02-12T08:39:18.131Z,4.20
2019-02-12T08:42:28.536Z,4.20
2019-02-12T08:45:25.621Z,4.30
2019-02-12T08:48:27.087Z,4.30
2019-02-12T08:51:31.119Z,4.30
2019-02-12T08:54:41.886Z,4.30
2019-02-12T08:58:01.089Z,4.30
2019-02-12T09:00:51.962Z,4.40
2019-02-12T09:03:52.001Z,4.50
2019-02-12T09:06:53.269Z,4.50
2019-02-12T09:09:58.587Z,4.60
2019-02-12T09:13:12.410Z,4.60
2019-02-12T09:16:17.101Z,4.80
2019-02-12T09:19:10.081Z,4.90
2019-02-12T09:22:13.091Z,5.10
2019-02-12T09:25:06.171Z,5.10
2019-02-12T09:28:07.954Z,5.20
2019-02-12T09:31:18.842Z,5.30
2019-02-12T09:34:34.431Z,5.50
2019-02-12T09:37:57.070Z,5.70
2019-02-12T09:40:51.088Z,5.80
2019-02-12T09:44:16.516Z,5.90
2019-02-12T09:47:30.068Z,5.90
2019-02-12T09:50:43.601Z,6.00
2019-02-12T09:54:08.419Z,6.40
2019-02-12T09:57:12.832Z,7.20
2019-02-12T10:00:01.404Z,8.40
2019-02-12T10:03:11.685Z,9.30
2019-02-12T10:06:21.762Z,9.30
2019-02-12T10:09:55.039Z,9.60
2019-02-12T10:13:01.209Z,10.30
2019-02-12T10:16:32.561Z,10.60
2019-02-12T10:19:28.266Z,10.90
2019-02-12T10:22:19.167Z,11.50
2019-02-12T10:24:58.563Z,11.80
2019-02-12T10:28:08.752Z,11.90
2019-02-12T10:30:55.367Z,12.50
2019-02-12T10:33:25.013Z,12.80
2019-02-12T10:35:54.189Z,13.10
2019-02-12T10:38:23.402Z,13.40
2019-02-12T10:40:53.149Z,13.50
2019-02-12T10:43:22.465Z,13.70
2019-02-12T10:45:52.009Z,14.00
2019-02-12T10:48:21.639Z,14.40
2019-02-12T10:50:51.248Z,14.20
2019-02-12T10:53:21.067Z,14.30
2019-02-12T10:55:50.613Z,14.80
2019-02-12T10:58:19.899Z,15.20
2019-02-12T11:00:49.837Z,15.70
2019-02-12T11:03:19.101Z,15.90
2019-02-12T11:05:48.463Z,16.30
2019-02-12T11:08:17.685Z,16.50
2019-02-12T11:10:47.176Z,16.40
2019-02-12T11:13:16.426Z,16.60
2019-02-12T11:15:45.678Z,16.60
2019-02-12T11:18:15.150Z,16.60
2019-02-12T11:20:44.331Z,16.70
2019-02-12T11:23:13.502Z,16.60
2019-02-12T11:25:42.790Z,17.00
2019-02-12T11:28:12.020Z,17.20
2019-02-12T11:30:41.192Z,17.50
2019-02-12T11:33:10.658Z,18.10
2019-02-12T11:35:39.890Z,18.20
2019-02-12T11:38:09.128Z,18.10
2019-02-12T11:40:38.643Z,18.10
2019-02-12T11:43:07.884Z,18.20
2019-02-12T11:45:37.036Z,18.10
2019-02-12T11:48:06.532Z,18.30
2019-02-12T11:50:35.779Z,18.30
2019-02-12T11:53:05.285Z,18.50
2019-02-12T11:55:34.583Z,18.50
2019-02-12T11:58:04.596Z,18.50
2019-02-12T12:00:39.499Z,18.80
2019-02-12T12:03:16.064Z,18.60
2019-02-12T12:05:45.899Z,18.40
2019-02-12T12:08:15.059Z,19.20
2019-02-12T12:10:44.583Z,19.40
2019-02-12T12:13:13.830Z,19.00
2019-02-12T12:15:43.257Z,18.60
2019-02-12T12:18:12.434Z,18.70
2019-02-12T12:20:41.671Z,18.90
2019-02-12T12:23:10.893Z,19.10
2019-02-12T12:25:40.536Z,18.70
2019-02-12T12:28:09.793Z,19.00
2019-02-12T12:30:39.399Z,19.30
2019-02-12T12:33:09.071Z,19.50
2019-02-12T12:35:38.220Z,19.60
2019-02-12T12:38:07.676Z,19.50
2019-02-12T12:40:37.189Z,19.90
2019-02-12T12:43:06.493Z,19.80
2019-02-12T12:45:36.092Z,20.60
2019-02-12T12:48:05.341Z,20.20
2019-02-12T12:50:34.588Z,20.20
2019-02-12T12:53:03.774Z,20.40
2019-02-12T12:55:33.660Z,19.40
2019-02-12T12:58:02.837Z,19.20
2019-02-12T13:00:32.068Z,18.70
2019-02-12T13:03:01.407Z,18.40
2019-02-12T13:05:30.719Z,17.40
2019-02-12T13:07:59.882Z,16.90
2019-02-12T13:10:29.108Z,16.60
2019-02-12T13:12:58.682Z,16.00
2019-02-12T13:15:27.924Z,16.20
2019-02-12T13:17:57.984Z,16.70
2019-02-12T13:20:27.180Z,17.10
2019-02-12T13:22:56.692Z,17.00
2019-02-12T13:25:25.930Z,16.30
2019-02-12T13:27:55.836Z,16.40
2019-02-12T13:30:25.108Z,16.90
2019-02-12T13:32:54.715Z,17.30
2019-02-12T13:35:23.867Z,17.40
2019-02-12T13:37:53.651Z,17.60
2019-02-12T13:40:23.001Z,17.50
2019-02-12T13:42:52.248Z,17.30
2019-02-12T13:45:21.507Z,17.30
2019-02-12T13:47:50.701Z,17.10
2019-02-12T13:50:19.933Z,17.10
2019-02-12T13:52:49.565Z,16.90
2019-02-12T13:55:19.166Z,17.00
2019-02-12T13:57:48.384Z,17.10
2019-02-12T14:00:17.689Z,17.40
2019-02-12T14:02:47.407Z,17.40
2019-02-12T14:05:17.474Z,17.00
2019-02-12T14:07:46.745Z,17.20
2019-02-12T14:10:16.347Z,17.00
2019-02-12T14:12:47.589Z,17.10
2019-02-12T14:15:18.713Z,16.90
2019-02-12T14:17:47.887Z,16.60
2019-02-12T14:20:17.461Z,16.80
2019-02-12T14:22:46.696Z,16.70
2019-02-12T14:25:16.135Z,16.90
2019-02-12T14:27:45.275Z,17.10
2019-02-12T14:30:14.596Z,17.30
2019-02-12T14:32:43.761Z,17.00
2019-02-12T14:35:13.913Z,16.60
2019-02-12T14:37:43.445Z,16.40
2019-02-12T14:40:12.962Z,15.40
2019-02-12T14:42:42.463Z,14.90
2019-02-12T14:45:12.748Z,14.70
2019-02-12T14:47:41.898Z,14.80
2019-02-12T14:50:12.224Z,14.80
2019-02-12T14:52:41.430Z,14.70
2019-02-12T14:55:10.890Z,14.60
2019-02-12T14:57:40.681Z,14.50
2019-02-12T15:00:12.559Z,14.20
2019-02-12T15:02:41.897Z,13.80
2019-02-12T15:05:11.348Z,13.50
2019-02-12T15:07:40.850Z,13.20
2019-02-12T15:10:10.878Z,12.90
2019-02-12T15:12:40.026Z,12.50
2019-02-12T15:15:09.804Z,12.30
2019-02-12T15:17:38.971Z,12.20
2019-02-12T15:20:08.836Z,12.10
2019-02-12T15:22:38.129Z,12.00
2019-02-12T15:25:08.276Z,11.80
2019-02-12T15:27:37.821Z,11.70
2019-02-12T15:30:09.169Z,11.60
2019-02-12T15:32:38.318Z,11.70
2019-02-12T15:35:08.796Z,11.60
2019-02-12T15:37:37.959Z,11.60
2019-02-12T15:40:09.474Z,11.50
2019-02-12T15:42:38.693Z,11.50
2019-02-12T15:45:10.043Z,11.50
2019-02-12T15:47:39.217Z,11.40
2019-02-12T15:50:09.531Z,11.30
2019-02-12T15:52:38.711Z,11.30
2019-02-12T15:55:09.342Z,11.20
2019-02-12T15:57:40.298Z,11.10
2019-02-12T16:00:15.670Z,11.00
2019-02-12T16:02:45.939Z,10.90
2019-02-12T16:05:15.196Z,10.80
2019-02-12T16:07:46.701Z,10.80
2019-02-12T16:10:17.770Z,10.70
2019-02-12T16:12:48.926Z,10.70
2019-02-12T16:15:21.144Z,10.60
2019-02-12T16:17:49.751Z,10.50
2019-02-12T16:20:19.595Z,10.40
2019-02-12T16:22:48.831Z,10.30
2019-02-12T16:25:18.366Z,10.20
2019-02-12T16:27:47.583Z,10.20
2019-02-12T16:30:43.927Z,10.10
2019-02-12T16:33:13.164Z,10.10
2019-02-12T16:35:42.383Z,9.90
2019-02-12T16:38:11.866Z,9.80
2019-02-12T16:40:41.784Z,9.70
2019-02-12T16:43:11.193Z,9.60
2019-02-12T16:45:47.676Z,9.60
2019-02-12T16:48:16.825Z,9.50
2019-02-12T16:50:46.178Z,9.50
2019-02-12T16:53:15.323Z,9.50
2019-02-12T16:55:44.559Z,9.50
2019-02-12T16:58:13.889Z,9.40
2019-02-12T17:00:43.394Z,9.30
2019-02-12T17:03:12.586Z,9.30
2019-02-12T17:05:42.122Z,9.20
2019-02-12T17:08:12.036Z,9.20
2019-02-12T17:10:41.217Z,9.10
2019-02-12T17:13:10.474Z,9.10
2019-02-12T17:15:39.725Z,9.00
2019-02-12T17:18:09.028Z,9.00
2019-02-12T17:20:38.377Z,8.90
2019-02-12T17:23:07.736Z,8.80
2019-02-12T17:25:36.943Z,8.80
2019-02-12T17:28:06.194Z,8.80
2019-02-12T17:30:35.424Z,8.70
2019-02-12T17:33:04.586Z,8.70
2019-02-12T17:35:33.844Z,8.60
2019-02-12T17:38:03.413Z,8.50
2019-02-12T17:40:33.047Z,8.50
2019-02-12T17:43:02.237Z,8.40
2019-02-12T17:45:31.445Z,8.40
2019-02-12T17:48:00.631Z,8.30
2019-02-12T17:50:30.125Z,8.40
2019-02-12T17:52:59.393Z,8.30
2019-02-12T17:55:28.689Z,8.30
2019-02-12T17:57:57.959Z,8.20
2019-02-12T18:00:30.330Z,8.20
2019-02-12T18:02:59.622Z,8.10
2019-02-12T18:05:29.261Z,8.10
2019-02-12T18:07:58.526Z,8.00
2019-02-12T18:10:27.805Z,8.00
2019-02-12T18:12:57.039Z,7.90
2019-02-12T18:15:26.593Z,7.90
2019-02-12T18:17:55.779Z,7.90
2019-02-12T18:20:26.796Z,7.90
2019-02-12T18:22:56.577Z,7.90
2019-02-12T18:25:25.795Z,7.80
2019-02-12T18:27:55.397Z,7.70
2019-02-12T18:30:25.019Z,7.70
2019-02-12T18:32:54.270Z,7.70
2019-02-12T18:35:24.261Z,7.70
2019-02-12T18:37:53.593Z,7.60
2019-02-12T18:40:23.574Z,7.60
2019-02-12T18:42:53.288Z,7.50
2019-02-12T18:45:22.528Z,7.50
2019-02-12T18:47:51.906Z,7.50
2019-02-12T18:50:21.158Z,7.50
2019-02-12T18:52:50.358Z,7.50
2019-02-12T18:55:20.073Z,7.50
2019-02-12T18:57:53.360Z,7.50
2019-02-12T19:00:24.970Z,7.50
2019-02-12T19:02:57.257Z,7.50
2019-02-12T19:05:28.300Z,7.40
2019-02-12T19:08:00.663Z,7.40
2019-02-12T19:10:30.831Z,7.40
2019-02-12T19:13:05.427Z,7.50
2019-02-12T19:15:38.956Z,7.50
2019-02-12T19:18:11.059Z,7.60
2019-02-12T19:20:40.229Z,7.60
2019-02-12T19:23:09.495Z,7.70
2019-02-12T19:25:39.162Z,7.70
2019-02-12T19:28:08.542Z,7.70
2019-02-12T19:30:37.961Z,7.80
2019-02-12T19:33:07.271Z,7.80
2019-02-12T19:35:36.503Z,7.80
2019-02-12T19:38:05.793Z,7.80
2019-02-12T19:40:35.705Z,7.80
2019-02-12T19:43:04.909Z,7.80
2019-02-12T19:45:34.221Z,7.80
2019-02-12T19:48:03.516Z,7.80
2019-02-12T19:50:33.238Z,7.80
2019-02-12T19:53:02.502Z,7.80
2019-02-12T19:55:31.694Z,7.70
2019-02-12T19:58:01.090Z,7.60
2019-02-12T20:00:32.479Z,7.60
2019-02-12T20:03:01.635Z,7.60
2019-02-12T20:05:30.979Z,7.50
2019-02-12T20:08:00.209Z,7.40
2019-02-12T20:10:30.172Z,7.40
2019-02-12T20:12:59.754Z,7.40
2019-02-12T20:15:28.913Z,7.30
2019-02-12T20:17:58.385Z,7.30
2019-02-12T20:20:27.566Z,7.30
2019-02-12T20:22:56.853Z,7.20
2019-02-12T20:25:26.011Z,7.20
2019-02-12T20:27:55.200Z,7.20
2019-02-12T20:30:24.436Z,7.20
2019-02-12T20:32:53.796Z,7.10
2019-02-12T20:35:22.962Z,7.10
2019-02-12T20:37:52.286Z,7.00
2019-02-12T20:40:21.615Z,7.10
2019-02-12T20:42:50.814Z,7.10
2019-02-12T20:45:20.463Z,7.00
2019-02-12T20:47:49.630Z,6.90
2019-02-12T20:50:19.143Z,6.90
2019-02-12T20:52:48.300Z,6.80
2019-02-12T20:55:17.461Z,6.80
2019-02-12T20:57:46.672Z,6.80
2019-02-12T21:00:17.208Z,6.70
2019-02-12T21:02:46.435Z,6.70
2019-02-12T21:05:16.146Z,6.70
2019-02-12T21:07:45.850Z,6.70
2019-02-12T21:10:16.181Z,6.70
2019-02-12T21:12:45.713Z,6.70
2019-02-12T21:15:17.189Z,6.70
2019-02-12T21:17:46.373Z,6.70
2019-02-12T21:20:15.898Z,6.70
2019-02-12T21:22:45.207Z,6.60
2019-02-12T21:25:14.549Z,6.60
2019-02-12T21:27:43.717Z,6.60
2019-02-12T21:30:15.936Z,6.60
2019-02-12T21:32:45.717Z,6.60
2019-02-12T21:35:15.370Z,6.60
2019-02-12T21:37:44.918Z,6.60
2019-02-12T21:40:16.578Z,6.60
2019-02-12T21:42:48.076Z,6.60
2019-02-12T21:45:19.825Z,6.50
2019-02-12T21:47:51.688Z,6.60
2019-02-12T21:50:23.002Z,6.60
2019-02-12T21:52:56.696Z,6.60
2019-02-12T21:55:26.005Z,6.60
2019-02-12T21:57:55.268Z,6.60
2019-02-12T22:00:24.482Z,6.60
2019-02-12T22:02:53.675Z,6.60
2019-02-12T22:05:23.017Z,6.60
2019-02-12T22:07:52.503Z,6.60
2019-02-12T22:10:21.668Z,6.50
2019-02-12T22:12:50.842Z,6.50
2019-02-12T22:15:19.976Z,6.40
2019-02-12T22:17:49.152Z,6.30
2019-02-12T22:20:18.788Z,6.30
2019-02-12T22:22:48.031Z,6.40
2019-02-12T22:25:17.262Z,6.40
2019-02-12T22:27:46.497Z,6.40
2019-02-12T22:30:17.846Z,6.30
2019-02-12T22:32:47.072Z,6.40
2019-02-12T22:35:16.290Z,6.40
2019-02-12T22:37:45.845Z,6.30
2019-02-12T22:40:15.375Z,6.30
2019-02-12T22:42:44.679Z,6.30
2019-02-12T22:45:15.856Z,6.20
2019-02-12T22:47:45.099Z,6.20
2019-02-12T22:50:14.394Z,6.10
2019-02-12T22:52:43.568Z,6.00
2019-02-12T22:55:13.242Z,6.00
2019-02-12T22:57:49.003Z,6.00
2019-02-12T23:00:33.843Z,6.00
2019-02-12T23:03:03.114Z,5.90
2019-02-12T23:05:32.401Z,5.80
2019-02-12T23:08:01.993Z,5.80
2019-02-12T23:10:31.919Z,5.80
2019-02-12T23:13:01.215Z,5.80
2019-02-12T23:15:30.807Z,5.90
2019-02-12T23:17:59.986Z,5.90
2019-02-12T23:20:29.262Z,6.00
2019-02-12T23:22:58.432Z,6.00
2019-02-12T23:25:27.963Z,6.10
2019-02-12T23:27:57.863Z,6.10
2019-02-12T23:30:27.594Z,6.10
2019-02-12T23:32:57.093Z,6.10
2019-02-12T23:35:26.255Z,6.10
2019-02-12T23:37:55.488Z,6.10
2019-02-12T23:40:24.825Z,6.10
2019-02-12T23:42:53.992Z,6.10
2019-02-12T23:45:23.168Z,6.10
2019-02-12T23:47:52.413Z,6.10
2019-02-12T23:50:21.628Z,6.20
2019-02-12T23:52:50.877Z,6.20
2019-02-12T23:55:20.109Z,6.20
2019-02-12T23:57:49.289Z,6.20
